Time;durP1;ratioP1;P1;durP2;ratioP2;P2;SDS_P1;SDS_P2;PMS_P1;PMS_P2;Temp;Humidity;BMP_temperature;BMP_pressure;BME280_temperature;BME280_humidity;BME280_pressure;Samples;Min_cycle;Max_cycle;Signal;HPM_P1;HPM_P2
2023/12/18 00:02:16;;;;;;;26.45;21.92;;;2.70;99.90;;;;;;5074564;28;20074;-62
2023/12/18 00:04:42;;;;;;;25.88;22.10;;;2.70;99.90;;;;;;5074088;28;20074;-62
2023/12/18 00:07:07;;;;;;;24.92;21.13;;;2.80;99.90;;;;;;5074505;28;20033;-62
2023/12/18 00:09:33;;;;;;;25.13;20.48;;;2.80;99.90;;;;;;5074478;28;20442;-63
2023/12/18 00:11:59;;;;;;;30.40;25.55;;;2.70;99.90;;;;;;5074245;28;20032;-62
2023/12/18 00:14:25;;;;;;;32.85;27.45;;;2.60;99.90;;;;;;5074318;28;20066;-63
2023/12/18 00:16:51;;;;;;;32.95;26.98;;;2.80;99.90;;;;;;5072912;28;20420;-63
2023/12/18 00:19:17;;;;;;;30.50;25.20;;;;;;;;;;5073848;28;20025;-62
2023/12/18 00:21:42;;;;;;;36.63;27.40;;;2.60;99.90;;;;;;5074438;28;20036;-62
2023/12/18 00:24:08;;;;;;;36.88;27.50;;;2.60;99.90;;;;;;5074100;28;20071;-62
2023/12/18 00:26:34;;;;;;;32.95;26.02;;;2.50;99.90;;;;;;5074337;28;20085;-63
2023/12/18 00:28:59;;;;;;;30.92;25.50;;;2.50;99.90;;;;;;5074133;28;20115;-63
2023/12/18 00:31:25;;;;;;;31.08;25.30;;;2.30;99.90;;;;;;5073977;28;20039;-62
2023/12/18 00:33:51;;;;;;;34.78;26.10;;;2.30;99.90;;;;;;5073741;28;20016;-62
2023/12/18 00:36:16;;;;;;;32.38;25.05;;;2.30;99.90;;;;;;5073731;28;20032;-63
2023/12/18 00:38:42;;;;;;;36.13;25.60;;;2.30;99.90;;;;;;5073801;28;20038;-63
2023/12/18 00:41:08;;;;;;;31.50;24.33;;;2.30;99.90;;;;;;5074083;28;20021;-63
2023/12/18 00:43:34;;;;;;;26.45;22.10;;;2.40;99.90;;;;;;5073714;28;20029;-63
2023/12/18 00:46:00;;;;;;;28.80;22.27;;;2.30;99.90;;;;;;5073437;28;20570;-63
2023/12/18 00:48:26;;;;;;;24.08;20.90;;;2.20;99.90;;;;;;5073394;28;20052;-63
2023/12/18 00:50:52;;;;;;;23.73;20.52;;;2.20;99.90;;;;;;5073476;28;20110;-62
2023/12/18 00:53:18;;;;;;;24.40;19.88;;;2.10;99.90;;;;;;5073493;28;20043;-63
2023/12/18 00:55:43;;;;;;;24.38;20.27;;;2.20;99.90;;;;;;5073790;28;20024;-62
2023/12/18 00:58:10;;;;;;;25.33;20.27;;;2.30;99.90;;;;;;5073457;28;20040;-63
2023/12/18 01:00:35;;;;;;;24.35;20.65;;;2.50;99.90;;;;;;5073107;28;20044;-63
2023/12/18 01:03:01;;;;;;;25.77;21.33;;;2.50;99.90;;;;;;5072140;28;20074;-62
2023/12/18 01:05:26;;;;;;;27.17;21.73;;;2.50;99.90;;;;;;5073716;28;20026;-63
2023/12/18 01:07:52;;;;;;;24.77;20.17;;;2.40;99.90;;;;;;5073296;28;20115;-62
2023/12/18 01:10:18;;;;;;;23.40;19.23;;;2.40;99.90;;;;;;5073343;28;20033;-62
2023/12/18 01:12:44;;;;;;;24.85;18.77;;;2.20;99.90;;;;;;5073552;28;20048;-62
2023/12/18 01:15:10;;;;;;;20.23;17.30;;;2.40;99.90;;;;;;5073176;28;20107;-63
2023/12/18 01:17:35;;;;;;;21.92;17.33;;;2.60;99.90;;;;;;5072693;28;20127;-62
2023/12/18 01:20:02;;;;;;;21.85;17.48;;;2.80;99.90;;;;;;5072993;28;20237;-62
2023/12/18 01:22:27;;;;;;;20.25;16.92;;;2.70;99.90;;;;;;5073341;28;20056;-62
2023/12/18 01:24:53;;;;;;;20.25;16.65;;;2.70;99.90;;;;;;5072879;28;20386;-62
2023/12/18 01:27:19;;;;;;;19.63;15.63;;;2.70;99.90;;;;;;5072877;28;20411;-62
2023/12/18 01:29:44;;;;;;;19.35;16.67;;;2.80;99.90;;;;;;5072780;28;20387;-62
2023/12/18 01:32:10;;;;;;;19.45;16.23;;;2.90;99.90;;;;;;5072395;28;20032;-62
2023/12/18 01:34:35;;;;;;;21.92;17.15;;;2.70;99.90;;;;;;5072713;28;20023;-62
2023/12/18 01:37:03;;;;;;;21.33;16.73;;;2.70;99.90;;;;;;5072869;28;20040;-62
2023/12/18 01:39:30;;;;;;;23.50;17.80;;;2.60;99.90;;;;;;5072453;28;20066;-63
2023/12/18 01:41:56;;;;;;;22.23;17.00;;;2.40;99.90;;;;;;5072672;28;20411;-62
2023/12/18 01:44:21;;;;;;;22.20;17.77;;;2.20;99.90;;;;;;5072487;28;20021;-62
2023/12/18 01:46:47;;;;;;;20.27;16.65;;;2.10;99.90;;;;;;5071948;28;20035;-62
2023/12/18 01:49:13;;;;;;;20.27;17.83;;;2.20;99.90;;;;;;5072691;28;20025;-63
2023/12/18 01:51:40;;;;;;;17.83;15.75;;;2.20;99.90;;;;;;5072505;28;20035;-62
2023/12/18 01:54:06;;;;;;;18.92;16.67;;;2.10;99.90;;;;;;5072318;28;20391;-62
2023/12/18 01:56:34;;;;;;;22.58;18.13;;;2.10;99.90;;;;;;5072284;28;20438;-62
2023/12/18 01:59:02;;;;;;;21.67;17.83;;;2.10;99.90;;;;;;5072113;28;20108;-61
2023/12/18 02:01:29;;;;;;;21.17;17.40;;;1.90;99.90;;;;;;5072086;28;20635;-62
2023/12/18 02:03:55;;;;;;;20.23;17.38;;;1.80;99.90;;;;;;5072294;28;20021;-62
2023/12/18 02:06:22;;;;;;;21.23;17.80;;;1.70;99.90;;;;;;5072134;28;20024;-62
2023/12/18 02:08:48;;;;;;;22.15;17.80;;;1.70;99.90;;;;;;5072484;28;20115;-62
2023/12/18 02:11:13;;;;;;;21.55;16.77;;;1.70;99.90;;;;;;5072110;28;20566;-61
2023/12/18 02:13:40;;;;;;;20.08;17.70;;;1.70;99.90;;;;;;5071659;28;20025;-62
2023/12/18 02:16:07;;;;;;;22.38;17.63;;;1.70;99.90;;;;;;5071837;28;20021;-62
2023/12/18 02:18:32;;;;;;;22.80;17.67;;;1.70;99.90;;;;;;5071926;28;20059;-62
2023/12/18 02:20:58;;;;;;;20.02;16.05;;;1.80;99.90;;;;;;5071861;28;20025;-62
2023/12/18 02:23:24;;;;;;;18.48;15.35;;;1.70;99.90;;;;;;5071885;28;20095;-62
2023/12/18 02:25:50;;;;;;;16.95;14.82;;;1.70;99.90;;;;;;5071814;28;20017;-62
2023/12/18 02:28:17;;;;;;;17.05;15.18;;;1.70;99.90;;;;;;5071537;28;20069;-62
2023/12/18 02:30:43;;;;;;;17.17;15.40;;;1.70;99.90;;;;;;5071721;28;20120;-62
2023/12/18 02:33:09;;;;;;;17.35;14.73;;;1.60;99.90;;;;;;5071886;28;20032;-62
2023/12/18 02:35:35;;;;;;;16.08;14.38;;;1.50;99.90;;;;;;5071793;28;20021;-62
2023/12/18 02:38:01;;;;;;;15.85;12.98;;;1.50;99.90;;;;;;5071569;28;20522;-62
2023/12/18 02:40:27;;;;;;;15.00;13.20;;;1.50;99.90;;;;;;5071760;28;20108;-62
2023/12/18 02:42:53;;;;;;;15.63;13.93;;;1.50;99.90;;;;;;5071214;28;20030;-63
2023/12/18 02:45:19;;;;;;;14.82;13.23;;;1.40;99.90;;;;;;5071494;28;20021;-62
2023/12/18 02:47:45;;;;;;;15.13;13.60;;;1.50;99.90;;;;;;5071811;28;20558;-62
2023/12/18 02:50:11;;;;;;;15.13;13.18;;;1.40;99.90;;;;;;5071449;28;20044;-63
2023/12/18 02:52:36;;;;;;;15.75;13.40;;;1.40;99.90;;;;;;5071470;28;20016;-63
2023/12/18 02:55:02;;;;;;;16.83;13.27;;;1.40;99.90;;;;;;5071256;28;20532;-63
2023/12/18 02:57:28;;;;;;;13.93;12.32;;;1.40;99.90;;;;;;5070960;28;20028;-61
2023/12/18 02:59:54;;;;;;;13.52;12.10;;;1.30;99.90;;;;;;5071361;28;20048;-63
2023/12/18 03:02:19;;;;;;;14.18;12.77;;;1.30;99.90;;;;;;5071406;28;20039;-63
2023/12/18 03:04:45;;;;;;;15.93;13.23;;;1.30;99.90;;;;;;5071519;28;20440;-63
2023/12/18 03:07:11;;;;;;;14.50;11.88;;;1.30;99.90;;;;;;5071499;28;20360;-63
2023/12/18 03:09:37;;;;;;;13.50;12.10;;;1.40;99.90;;;;;;5071175;28;20059;-63
2023/12/18 03:12:04;;;;;;;13.63;12.23;;;1.40;99.90;;;;;;5070958;28;20070;-63
2023/12/18 03:14:29;;;;;;;15.38;12.25;;;1.40;99.90;;;;;;5071256;28;20021;-62
2023/12/18 03:16:55;;;;;;;12.77;11.32;;;1.30;99.90;;;;;;5071178;28;20098;-63
2023/12/18 03:19:21;;;;;;;14.82;11.77;;;1.30;99.90;;;;;;5071286;28;20056;-63
2023/12/18 03:21:47;;;;;;;13.77;11.63;;;1.30;99.90;;;;;;5071610;28;20033;-63
2023/12/18 03:24:12;;;;;;;12.32;11.07;;;1.20;99.90;;;;;;5070990;28;20032;-63
2023/12/18 03:26:38;;;;;;;13.15;11.27;;;1.20;99.90;;;;;;5072663;28;20056;-63
2023/12/18 03:29:04;;;;;;;12.65;11.35;;;1.20;99.90;;;;;;5075235;28;20020;-63
2023/12/18 03:31:30;;;;;;;12.55;11.25;;;1.20;99.90;;;;;;5075564;28;20816;-63
2023/12/18 03:33:56;;;;;;;13.10;11.05;;;1.20;99.90;;;;;;5075170;28;20044;-64
2023/12/18 03:36:22;;;;;;;12.85;11.32;;;1.40;99.90;;;;;;5075014;28;20115;-63
2023/12/18 03:38:48;;;;;;;13.32;11.88;;;1.50;99.90;;;;;;5074879;28;20111;-64
2023/12/18 03:41:14;;;;;;;14.25;11.88;;;1.60;99.90;;;;;;5075029;28;20017;-63
2023/12/18 03:43:39;;;;;;;12.30;11.10;;;1.60;99.90;;;;;;5074897;28;20032;-63
2023/12/18 03:46:06;;;;;;;12.55;11.35;;;1.80;99.90;;;;;;5074714;28;20025;-63
2023/12/18 03:48:32;;;;;;;14.48;10.85;;;1.90;99.90;;;;;;5074996;28;20056;-63
2023/12/18 03:50:57;;;;;;;13.30;10.50;;;2.10;99.90;;;;;;5074770;28;20514;-64
2023/12/18 03:53:23;;;;;;;11.52;10.32;;;1.90;99.90;;;;;;5074683;28;20098;-64
2023/12/18 03:55:49;;;;;;;11.07;9.95;;;1.90;99.90;;;;;;5074643;28;20518;-63
2023/12/18 03:58:14;;;;;;;11.30;9.63;;;1.90;99.90;;;;;;5074625;28;20028;-64
2023/12/18 04:00:41;;;;;;;11.93;9.95;;;1.90;99.90;;;;;;5074301;28;20044;-64
2023/12/18 04:03:06;;;;;;;11.40;10.20;;;1.80;99.90;;;;;;5074632;28;20423;-63
2023/12/18 04:05:32;;;;;;;11.95;10.30;;;1.70;99.90;;;;;;5074507;28;20060;-63
2023/12/18 04:07:58;;;;;;;11.07;9.93;;;1.50;99.90;;;;;;5074773;28;20024;-64
2023/12/18 04:10:24;;;;;;;12.65;10.77;;;1.30;99.90;;;;;;5074192;28;20028;-64
2023/12/18 04:12:49;;;;;;;13.02;11.45;;;1.40;99.90;;;;;;5074221;28;20032;-64
2023/12/18 04:15:15;;;;;;;11.95;10.75;;;1.30;99.90;;;;;;5074204;28;20103;-64
2023/12/18 04:17:41;;;;;;;11.80;10.60;;;1.40;99.90;;;;;;5072942;28;20082;-64
2023/12/18 04:20:07;;;;;;;15.02;10.77;;;1.40;99.90;;;;;;5074467;28;20422;-64
2023/12/18 04:22:32;;;;;;;11.95;10.73;;;1.30;99.90;;;;;;5073996;28;20097;-64
2023/12/18 04:24:58;;;;;;;12.30;11.00;;;1.10;99.90;;;;;;5073730;28;20433;-63
2023/12/18 04:27:24;;;;;;;12.40;10.98;;;1.00;99.90;;;;;;5074054;28;20487;-64
2023/12/18 04:29:50;;;;;;;15.00;11.43;;;1.00;99.90;;;;;;5074215;28;20365;-64
2023/12/18 04:32:16;;;;;;;11.10;10.00;;;1.00;99.90;;;;;;5073991;28;20029;-64
2023/12/18 04:34:44;;;;;;;11.15;9.98;;;1.00;99.90;;;;;;5074254;28;20105;-64
2023/12/18 04:37:10;;;;;;;11.80;10.60;;;0.90;99.90;;;;;;5073104;28;20408;-64
2023/12/18 04:39:36;;;;;;;11.30;10.02;;;0.90;99.90;;;;;;5073182;28;20052;-63
2023/12/18 04:42:02;;;;;;;11.38;10.18;;;1.00;99.90;;;;;;5073756;28;20047;-64
2023/12/18 04:44:28;;;;;;;11.75;10.55;;;0.90;99.90;;;;;;5073704;28;20100;-64
2023/12/18 04:46:54;;;;;;;11.02;9.88;;;0.90;99.90;;;;;;5073546;28;20034;-63
2023/12/18 04:49:20;;;;;;;11.65;10.45;;;0.90;99.90;;;;;;5073942;28;20513;-64
2023/12/18 04:51:47;;;;;;;11.20;10.10;;;0.90;99.90;;;;;;5073865;28;20109;-63
2023/12/18 04:54:13;;;;;;;12.63;10.75;;;0.90;99.90;;;;;;5073123;28;20025;-64
2023/12/18 04:56:38;;;;;;;13.35;10.10;;;0.90;99.90;;;;;;5073457;28;20098;-63
2023/12/18 04:59:04;;;;;;;12.25;10.02;;;0.90;99.90;;;;;;5073372;28;20537;-63
2023/12/18 05:01:30;;;;;;;10.80;9.73;;;0.90;99.90;;;;;;5073642;28;20024;-64
2023/12/18 05:03:55;;;;;;;10.30;9.27;;;0.90;99.90;;;;;;5073423;28;20103;-64
2023/12/18 05:06:23;;;;;;;11.27;10.07;;;0.90;99.90;;;;;;5073341;28;20104;-64
2023/12/18 05:08:49;;;;;;;11.75;9.75;;;0.90;99.90;;;;;;5073086;28;20024;-65
2023/12/18 05:11:17;;;;;;;10.70;9.60;;;1.00;99.90;;;;;;5073117;28;20028;-64
2023/12/18 05:13:43;;;;;;;12.23;9.90;;;1.00;99.90;;;;;;5073253;28;20029;-64
2023/12/18 05:16:08;;;;;;;13.27;10.55;;;1.00;99.90;;;;;;5073099;28;20115;-64
2023/12/18 05:18:34;;;;;;;13.73;10.50;;;0.90;99.90;;;;;;5073201;28;20108;-64
2023/12/18 05:21:00;;;;;;;16.73;10.57;;;0.90;99.90;;;;;;5073385;28;20035;-64
2023/12/18 05:23:26;;;;;;;14.30;10.75;;;0.90;99.90;;;;;;5072680;28;20025;-64
2023/12/18 05:25:52;;;;;;;13.25;10.80;;;0.90;99.90;;;;;;5073109;28;20043;-65
2023/12/18 05:28:18;;;;;;;11.57;10.38;;;0.80;99.90;;;;;;5073015;28;20115;-64
2023/12/18 05:30:44;;;;;;;19.50;11.50;;;0.90;99.90;;;;;;5072817;28;20487;-64
2023/12/18 05:33:10;;;;;;;13.43;10.85;;;0.80;99.90;;;;;;5072907;28;20095;-65
2023/12/18 05:35:36;;;;;;;13.30;11.38;;;0.80;99.90;;;;;;5072728;28;20100;-65
2023/12/18 05:38:02;;;;;;;15.02;12.10;;;0.80;99.90;;;;;;5072394;28;20115;-65
2023/12/18 05:40:27;;;;;;;12.35;11.07;;;0.80;99.90;;;;;;5073048;28;20035;-65
2023/12/18 05:42:53;;;;;;;14.05;12.15;;;0.80;99.90;;;;;;5072423;28;20029;-65
2023/12/18 05:45:19;;;;;;;14.35;12.25;;;0.70;99.90;;;;;;5072803;28;20028;-64
2023/12/18 05:47:45;;;;;;;15.70;12.52;;;0.70;99.90;;;;;;5072447;28;20441;-64
2023/12/18 05:50:11;;;;;;;13.88;12.30;;;0.70;99.90;;;;;;5072219;28;20032;-64
2023/12/18 05:52:38;;;;;;;16.90;12.63;;;0.70;99.90;;;;;;5071977;28;20032;-64
2023/12/18 05:55:04;;;;;;;14.70;12.23;;;0.80;99.90;;;;;;5072604;28;20055;-65
2023/12/18 05:57:30;;;;;;;14.80;12.00;;;0.80;99.90;;;;;;5072320;28;20503;-65
2023/12/18 05:59:56;;;;;;;14.05;11.82;;;0.60;99.90;;;;;;5072298;28;20511;-65
2023/12/18 06:02:21;;;;;;;15.18;12.48;;;0.80;99.90;;;;;;5072375;28;20029;-65
2023/12/18 06:04:47;;;;;;;14.50;12.20;;;1.10;99.90;;;;;;5072522;28;20040;-65
2023/12/18 06:07:13;;;;;;;13.27;11.88;;;1.10;99.90;;;;;;5071760;28;20029;-65
2023/12/18 06:09:39;;;;;;;14.20;12.70;;;1.20;99.90;;;;;;5072189;28;20034;-64
2023/12/18 06:12:06;;;;;;;16.65;12.68;;;1.30;99.90;;;;;;5072073;28;20035;-65
2023/12/18 06:14:31;;;;;;;15.00;12.80;;;1.30;99.90;;;;;;5072268;28;20035;-65
2023/12/18 06:16:57;;;;;;;14.77;12.75;;;1.40;99.90;;;;;;5071856;28;20044;-65
2023/12/18 06:19:23;;;;;;;16.85;14.00;;;1.30;99.90;;;;;;5071937;28;20134;-65
2023/12/18 06:21:48;;;;;;;18.77;14.20;;;1.40;99.90;;;;;;5071627;28;20074;-65
2023/12/18 06:24:14;;;;;;;16.98;14.02;;;1.40;99.90;;;;;;5072192;28;20024;-65
2023/12/18 06:26:40;;;;;;;17.58;14.18;;;1.20;99.90;;;;;;5071687;28;20395;-65
2023/12/18 06:29:05;;;;;;;20.00;15.27;;;1.10;99.90;;;;;;5071644;28;20036;-64
2023/12/18 06:31:31;;;;;;;18.38;15.32;;;1.00;99.90;;;;;;5071656;28;20533;-65
2023/12/18 06:33:57;;;;;;;21.02;16.75;;;0.80;99.90;;;;;;5071891;28;20604;-64
2023/12/18 06:36:22;;;;;;;22.77;17.10;;;0.70;99.90;;;;;;5071431;28;20127;-65
2023/12/18 06:38:48;;;;;;;22.88;19.10;;;0.70;99.90;;;;;;5071659;28;20298;-65
2023/12/18 06:41:14;;;;;;;28.08;19.95;;;0.60;99.90;;;;;;5071827;28;20446;-65
2023/12/18 06:43:40;;;;;;;27.50;20.05;;;0.60;99.90;;;;;;5072045;28;20020;-65
2023/12/18 06:46:06;;;;;;;33.58;21.98;;;0.50;99.90;;;;;;5071538;28;20028;-64
2023/12/18 06:48:32;;;;;;;32.90;21.85;;;0.50;99.90;;;;;;5054389;28;20107;-65
2023/12/18 06:50:58;;;;;;;28.02;19.90;;;0.50;99.90;;;;;;5050951;28;20067;-64
2023/12/18 06:53:24;;;;;;;23.85;18.38;;;0.60;99.90;;;;;;5050754;28;20049;-63
2023/12/18 06:55:50;;;;;;;26.63;19.38;;;0.50;99.90;;;;;;5069210;28;20025;-63
2023/12/18 06:58:16;;;;;;;27.30;19.98;;;0.60;99.90;;;;;;5070941;28;20057;-65
2023/12/18 07:00:42;;;;;;;26.58;19.73;;;0.50;99.90;;;;;;5070376;28;20049;-63
2023/12/18 07:03:08;;;;;;;26.17;20.27;;;0.50;99.90;;;;;;5071102;28;20032;-63
2023/12/18 07:05:33;;;;;;;26.23;20.40;;;0.50;99.90;;;;;;5071136;28;20066;-64
2023/12/18 07:07:59;;;;;;;26.77;19.15;;;0.50;99.90;;;;;;5071095;28;20505;-63
2023/12/18 07:10:25;;;;;;;28.90;17.70;;;0.50;99.90;;;;;;5071053;28;20028;-64
2023/12/18 07:12:50;;;;;;;25.55;17.95;;;0.50;99.90;;;;;;5071105;28;20028;-65
2023/12/18 07:15:16;;;;;;;23.83;17.77;;;0.50;99.90;;;;;;5071117;28;20284;-64
2023/12/18 07:17:42;;;;;;;22.52;17.60;;;0.50;99.90;;;;;;5070962;28;20046;-65
2023/12/18 07:20:08;;;;;;;27.40;19.75;;;0.40;99.90;;;;;;5070671;28;20395;-65
2023/12/18 07:22:35;;;;;;;27.80;20.17;;;0.50;99.90;;;;;;5070913;28;20029;-65
2023/12/18 07:25:01;;;;;;;53.05;34.10;;;0.50;99.90;;;;;;5071272;28;20025;-63
2023/12/18 07:27:27;;;;;;;59.30;39.05;;;0.50;99.90;;;;;;5070714;28;20494;-64
2023/12/18 07:29:53;;;;;;;39.70;28.60;;;0.50;99.90;;;;;;5070831;28;20108;-63
2023/12/18 07:32:18;;;;;;;40.75;27.70;;;0.50;99.90;;;;;;5070807;28;20056;-65
2023/12/18 07:34:45;;;;;;;40.15;28.73;;;0.50;99.90;;;;;;5070773;28;20021;-65
2023/12/18 07:37:11;;;;;;;42.42;28.33;;;0.40;99.90;;;;;;5070593;28;20033;-65
2023/12/18 07:39:37;;;;;;;41.05;29.20;;;0.40;99.90;;;;;;5070885;28;20024;-65
2023/12/18 07:42:03;;;;;;;40.80;29.05;;;0.50;99.90;;;;;;5070739;28;20032;-63
2023/12/18 07:44:28;;;;;;;45.85;29.40;;;0.50;99.90;;;;;;5070557;28;20063;-65
2023/12/18 07:46:54;;;;;;;49.38;30.10;;;0.60;99.90;;;;;;5070390;28;20572;-65
2023/12/18 07:49:22;;;;;;;58.60;37.65;;;0.70;99.90;;;;;;5070903;28;20028;-65
2023/12/18 07:51:47;;;;;;;71.05;43.58;;;0.70;99.90;;;;;;5070700;28;20506;-64
2023/12/18 07:54:15;;;;;;;62.33;40.80;;;0.80;99.90;;;;;;5070631;28;20111;-63
2023/12/18 07:56:40;;;;;;;55.40;36.08;;;0.90;99.90;;;;;;5070812;28;20025;-63
2023/12/18 07:59:07;;;;;;;47.13;32.88;;;1.00;99.90;;;;;;5070289;28;20522;-63
2023/12/18 08:01:34;;;;;;;53.70;32.47;;;1.10;99.90;;;;;;5069888;28;20073;-65
2023/12/18 08:03:59;;;;;;;51.13;30.67;;;1.20;99.90;;;;;;5070600;28;20104;-63
2023/12/18 08:06:25;;;;;;;48.03;29.42;;;1.20;99.90;;;;;;5070917;28;20645;-63
2023/12/18 08:08:51;;;;;;;52.63;28.98;;;1.20;99.90;;;;;;5070463;28;20032;-64
2023/12/18 08:11:16;;;;;;;47.63;28.15;;;1.30;99.90;;;;;;5070328;28;20025;-64
2023/12/18 08:13:43;;;;;;;49.67;26.80;;;1.30;99.90;;;;;;5074024;28;20066;-64
2023/12/18 08:16:10;;;;;;;43.78;27.25;;;1.30;99.90;;;;;;5073790;28;20048;-67
2023/12/18 08:18:36;;;;;;;44.17;27.70;;;1.40;99.90;;;;;;5073674;28;20025;-66
2023/12/18 08:21:02;;;;;;;43.40;27.45;;;1.40;99.90;;;;;;5073701;28;20040;-66
2023/12/18 08:23:28;;;;;;;46.03;27.63;;;1.40;99.90;;;;;;5073305;28;20091;-66
2023/12/18 08:25:53;;;;;;;47.63;29.10;;;1.40;99.90;;;;;;5073907;28;20020;-67
2023/12/18 08:28:19;;;;;;;52.70;32.35;;;1.50;99.90;;;;;;5073251;28;20021;-65
2023/12/18 08:30:45;;;;;;;50.03;32.38;;;1.60;99.90;;;;;;5072525;28;20452;-67
2023/12/18 08:33:11;;;;;;;54.70;32.60;;;1.90;99.90;;;;;;5073164;28;20070;-67
2023/12/18 08:35:36;;;;;;;53.33;33.40;;;2.20;99.90;;;;;;5073068;28;20040;-67
2023/12/18 08:38:02;;;;;;;58.35;32.97;;;2.40;99.90;;;;;;5073012;28;20083;-67
2023/12/18 08:40:29;;;;;;;44.20;29.98;;;2.50;99.90;;;;;;5073515;28;20028;-67
2023/12/18 08:42:55;;;;;;;43.72;25.88;;;2.70;99.90;;;;;;5072682;28;20021;-67
2023/12/18 08:45:20;;;;;;;35.20;23.67;;;2.70;99.90;;;;;;5072874;28;20398;-67
2023/12/18 08:47:46;;;;;;;37.65;23.08;;;2.80;99.90;;;;;;5072680;28;20115;-67
2023/12/18 08:50:12;;;;;;;39.25;24.27;;;2.80;99.90;;;;;;5073103;28;20042;-67
2023/12/18 08:52:38;;;;;;;39.10;23.95;;;2.80;99.90;;;;;;5072550;28;20483;-66
2023/12/18 08:55:04;;;;;;;39.33;24.15;;;2.80;99.90;;;;;;5072560;28;20029;-67
2023/12/18 08:57:29;;;;;;;40.33;26.10;;;2.70;99.90;;;;;;5071574;28;20060;-67
2023/12/18 08:59:56;;;;;;;48.17;28.30;;;2.60;99.90;;;;;;5072002;28;20504;-67
2023/12/18 09:02:22;;;;;;;56.67;32.75;;;2.50;99.90;;;;;;5072747;28;20021;-66
2023/12/18 09:04:49;;;;;;;57.08;32.33;;;2.30;99.90;;;;;;5072453;28;20409;-66
2023/12/18 09:07:15;;;;;;;55.65;32.30;;;2.20;99.90;;;;;;5072530;28;20029;-65
2023/12/18 09:09:43;;;;;;;53.65;32.75;;;2.20;99.90;;;;;;5072882;28;20402;-67
2023/12/18 09:12:09;;;;;;;63.05;35.65;;;2.20;99.90;;;;;;5069616;28;20031;-66
2023/12/18 09:14:36;;;;;;;64.35;37.13;;;2.20;99.90;;;;;;5072547;28;20103;-66
2023/12/18 09:17:02;;;;;;;66.22;38.55;;;2.10;99.90;;;;;;5071655;28;20402;-66
2023/12/18 09:19:29;;;;;;;75.10;40.63;;;2.10;99.90;;;;;;5073002;28;20033;-66
2023/12/18 09:21:55;;;;;;;68.32;39.13;;;2.10;99.90;;;;;;5072676;28;20028;-66
2023/12/18 09:24:21;;;;;;;57.83;36.33;;;2.20;99.90;;;;;;5071914;28;20098;-65
2023/12/18 09:26:46;;;;;;;57.67;35.30;;;2.30;99.90;;;;;;5072761;28;20024;-65
2023/12/18 09:29:12;;;;;;;58.85;36.30;;;2.40;99.90;;;;;;5072845;28;20033;-66
2023/12/18 09:31:38;;;;;;;65.95;38.53;;;2.30;99.90;;;;;;5072580;28;20552;-66
2023/12/18 09:34:03;;;;;;;65.45;38.60;;;2.30;99.90;;;;;;5072863;28;20395;-66
2023/12/18 09:36:29;;;;;;;65.78;36.97;;;2.40;99.90;;;;;;5072752;28;20104;-65
2023/12/18 09:38:54;;;;;;;58.92;36.85;;;2.40;99.90;;;;;;5072583;28;20064;-65
2023/12/18 09:41:24;;;;;;;74.75;41.25;;;2.40;99.90;;;;;;5072879;28;20021;-66
2023/12/18 09:43:51;;;;;;;75.45;41.10;;;2.40;99.90;;;;;;5072310;28;20304;-65
2023/12/18 09:46:19;;;;;;;67.35;37.60;;;2.50;99.90;;;;;;5072749;28;20403;-66
2023/12/18 09:48:45;;;;;;;81.15;40.88;;;2.50;99.90;;;;;;5072873;28;20024;-65
2023/12/18 09:51:17;;;;;;;65.78;37.78;;;2.40;99.90;;;;;;5072388;28;20396;-66
2023/12/18 09:53:42;;;;;;;71.28;39.47;;;2.60;99.90;;;;;;5072446;28;20025;-65
2023/12/18 09:56:10;;;;;;;70.22;38.17;;;2.60;99.90;;;;;;5072233;28;20372;-65
2023/12/18 09:58:38;;;;;;;69.88;39.08;;;2.70;99.90;;;;;;5071816;28;20032;-65
2023/12/18 10:01:04;;;;;;;62.58;35.75;;;2.70;99.90;;;;;;5072183;28;20025;-65
2023/12/18 10:03:30;;;;;;;60.80;35.67;;;2.80;99.90;;;;;;5072507;28;20028;-65
2023/12/18 10:05:55;;;;;;;61.65;36.05;;;2.80;99.90;;;;;;5072203;28;20127;-65
2023/12/18 10:08:21;;;;;;;48.30;29.17;;;2.80;99.90;;;;;;5072116;28;20052;-65
2023/12/18 10:10:47;;;;;;;44.65;25.50;;;2.90;99.90;;;;;;5072302;28;20059;-65
2023/12/18 10:13:13;;;;;;;47.70;27.98;;;2.90;99.90;;;;;;5071694;28;20398;-65
2023/12/18 10:15:42;;;;;;;52.72;29.10;;;2.90;99.90;;;;;;5071920;28;20082;-65
2023/12/18 10:18:09;;;;;;;46.47;25.83;;;3.00;99.90;;;;;;5072178;28;20044;-65
2023/12/18 10:20:35;;;;;;;45.42;25.50;;;3.00;99.90;;;;;;5071704;28;20016;-64
2023/12/18 10:23:01;;;;;;;50.33;26.23;;;3.10;99.90;;;;;;5071919;28;20025;-65
2023/12/18 10:25:27;;;;;;;47.83;25.95;;;3.00;99.90;;;;;;5071833;28;20028;-64
2023/12/18 10:27:56;;;;;;;47.60;25.02;;;3.00;99.90;;;;;;5071584;28;20025;-65
2023/12/18 10:30:26;;;;;;;50.20;26.63;;;3.10;99.90;;;;;;5072072;28;20150;-65
2023/12/18 10:32:56;;;;;;;52.15;25.73;;;3.10;99.90;;;;;;5071692;28;20089;-65
2023/12/18 10:35:22;;;;;;;44.50;25.55;;;3.20;99.90;;;;;;5071637;28;20023;-64
2023/12/18 10:37:52;;;;;;;53.72;26.88;;;3.20;99.90;;;;;;5071937;28;20050;-64
2023/12/18 10:40:20;;;;;;;51.80;25.20;;;3.20;99.90;;;;;;5071426;28;20403;-64
2023/12/18 10:42:55;;;;;;;48.22;27.05;;;3.30;99.90;;;;;;5071262;28;20095;-63
2023/12/18 10:45:22;;;;;;;38.28;24.27;;;3.30;99.90;;;;;;5071655;28;20023;-64
2023/12/18 10:47:49;;;;;;;50.17;26.85;;;3.40;99.90;;;;;;5071824;28;20477;-63
2023/12/18 10:50:19;;;;;;;50.28;25.95;;;3.40;99.90;;;;;;5071303;28;20023;-64
2023/12/18 10:52:46;;;;;;;47.47;26.05;;;3.40;99.90;;;;;;5071244;28;20458;-63
2023/12/18 10:55:16;;;;;;;55.85;26.58;;;3.70;99.90;;;;;;5071539;28;20044;-64
2023/12/18 10:57:43;;;;;;;47.47;23.95;;;4.00;99.90;;;;;;5071001;28;20036;-64
2023/12/18 11:00:12;;;;;;;50.80;24.20;;;4.10;99.90;;;;;;5071035;28;20051;-64
2023/12/18 11:02:39;;;;;;;37.85;23.65;;;4.20;99.90;;;;;;5071244;28;20032;-64
2023/12/18 11:05:06;;;;;;;37.20;23.27;;;4.30;99.90;;;;;;5071354;28;20112;-64
2023/12/18 11:07:32;;;;;;;47.58;23.38;;;4.50;99.90;;;;;;5071139;28;20093;-64
2023/12/18 11:09:58;;;;;;;38.42;22.98;;;4.60;99.90;;;;;;5070853;28;20490;-64
2023/12/18 11:12:26;;;;;;;39.60;22.42;;;4.60;99.90;;;;;;5071634;28;20402;-63
2023/12/18 11:15:14;;;;;;;38.10;22.77;;;4.60;99.90;;;;;;5071050;28;20047;-64
2023/12/18 11:17:48;;;;;;;39.58;23.90;;;4.80;99.90;;;;;;5070988;28;20058;-64
2023/12/18 11:20:26;;;;;;;33.42;21.92;;;4.70;99.90;;;;;;5070998;28;20402;-64
2023/12/18 11:22:56;;;;;;;41.90;22.92;;;4.50;99.90;;;;;;5070901;28;20035;-65
2023/12/18 20:25:51;;;;;;;36.55;32.85;;;;;;;;;;5068255;28;20437;-61
2023/12/18 20:28:17;;;;;;;39.25;35.05;;;6.10;99.90;;;;;;5068213;28;20055;-62
2023/12/18 20:30:42;;;;;;;43.00;38.33;;;5.60;99.90;;;;;;5068130;28;20025;-62
2023/12/18 20:33:08;;;;;;;41.33;36.78;;;6.00;99.90;;;;;;5068199;28;20028;-62
2023/12/18 20:35:34;;;;;;;41.38;35.88;;;6.00;99.90;;;;;;5068261;28;20435;-62
2023/12/18 20:38:00;;;;;;;39.10;34.83;;;6.00;99.90;;;;;;5068247;28;20028;-62
2023/12/18 20:40:26;;;;;;;37.63;33.40;;;5.90;99.90;;;;;;5068155;28;20033;-62
2023/12/18 20:42:52;;;;;;;38.75;32.72;;;6.00;99.90;;;;;;5068468;28;20451;-62
2023/12/18 20:45:18;;;;;;;38.78;34.63;;;5.90;99.90;;;;;;5067832;28;20108;-62
2023/12/18 20:47:46;;;;;;;35.78;31.92;;;6.00;99.90;;;;;;5067488;28;20104;-62
2023/12/18 20:50:12;;;;;;;41.45;33.80;;;6.00;99.90;;;;;;5067871;28;20013;-62
2023/12/18 20:52:37;;;;;;;36.67;31.45;;;6.10;99.90;;;;;;5068144;28;20078;-61
2023/12/18 20:55:06;;;;;;;34.42;30.60;;;6.00;99.90;;;;;;5067790;28;20039;-62
2023/12/18 20:57:32;;;;;;;48.10;37.30;;;6.10;99.90;;;;;;5067671;28;20491;-62
2023/12/18 20:59:57;;;;;;;48.38;38.65;;;6.10;99.90;;;;;;5067973;28;20032;-62
2023/12/18 21:02:24;;;;;;;35.75;31.15;;;6.10;99.90;;;;;;5067456;28;20035;-62
2023/12/18 21:04:50;;;;;;;35.70;29.40;;;5.90;99.90;;;;;;5067565;28;20028;-63
2023/12/18 21:07:16;;;;;;;37.03;29.80;;;6.00;99.90;;;;;;5067837;28;20181;-63
2023/12/18 21:09:45;;;;;;;39.60;30.35;;;6.10;99.90;;;;;;5067469;28;20032;-63
2023/12/18 21:12:10;;;;;;;48.38;32.58;;;6.00;99.90;;;;;;5067736;28;20029;-63
2023/12/18 21:14:37;;;;;;;52.03;34.75;;;6.10;99.90;;;;;;5067104;28;20040;-62
2023/12/18 21:17:03;;;;;;;29.02;23.52;;;6.10;99.90;;;;;;5066956;28;20040;-62
2023/12/18 21:19:29;;;;;;;22.75;20.05;;;6.00;99.90;;;;;;5067066;28;20114;-62
2023/12/18 21:21:55;;;;;;;30.67;24.75;;;6.00;99.90;;;;;;5067185;28;20028;-63
2023/12/18 21:24:22;;;;;;;37.63;29.08;;;6.10;99.90;;;;;;5067496;28;20047;-63
2023/12/18 21:26:48;;;;;;;36.40;27.40;;;6.00;99.90;;;;;;5053748;28;20083;-63
2023/12/18 21:29:14;;;;;;;28.38;24.65;;;5.90;99.90;;;;;;5053734;28;20494;-63
2023/12/18 21:31:39;;;;;;;26.27;22.75;;;5.70;99.90;;;;;;5052781;28;20024;-63
2023/12/18 21:34:05;;;;;;;26.25;23.48;;;5.60;99.90;;;;;;5053665;28;20033;-63